Time;durP1;ratioP1;P1;durP2;ratioP2;P2;SDS_P1;SDS_P2;PMS_P1;PMS_P2;Temp;Humidity;BMP_temperature;BMP_pressure;BME280_temperature;BME280_humidity;BME280_pressure;Samples;Min_cycle;Max_cycle;Signal;HPM_P1;HPM_P2
2022/05/25 00:01:35;;;;;;;0.30;0.30;;;13.10;94.60;13.00;100200.00;;;;4955313;28;92883;-66
2022/05/25 00:04:02;;;;;;;0.20;0.20;;;13.00;94.90;13.00;100201.00;;;;4955255;28;88718;-66
2022/05/25 00:06:32;;;;;;;0.30;0.30;;;13.00;95.20;13.00;100201.00;;;;4953433;28;105392;-67
2022/05/25 00:08:58;;;;;;;0.50;0.47;;;12.90;95.40;12.90;100195.00;;;;4970092;28;87695;-66
2022/05/25 00:11:23;;;;;;;0.43;0.40;;;12.90;95.70;12.80;100201.00;;;;4955773;28;87604;-66
2022/05/25 00:13:49;;;;;;;0.40;0.30;;;12.90;96.00;12.80;100204.00;;;;4954468;28;108963;-66
2022/05/25 00:16:16;;;;;;;0.60;0.60;;;12.80;96.40;12.70;100212.00;;;;4954563;28;109292;-66
2022/05/25 00:19:58;;;;;;;0.40;0.40;;;12.70;96.80;12.70;100205.00;;;;4954682;28;88340;-66
2022/05/25 00:21:28;;;;;;;1.10;0.47;;;12.70;97.10;12.60;100214.00;;;;4955849;28;86989;-66
2022/05/25 00:23:53;;;;;;;0.53;0.53;;;12.60;97.50;12.50;100211.00;;;;4955384;28;89863;-66
2022/05/25 00:26:19;;;;;;;0.30;0.30;;;12.50;98.00;12.40;100208.00;;;;4954452;28;89320;-66
2022/05/25 00:28:45;;;;;;;0.80;0.53;;;12.50;98.40;12.40;100214.00;;;;4953352;28;115874;-66
2022/05/25 00:31:12;;;;;;;1.90;0.40;;;12.40;98.60;12.30;100211.00;;;;4954275;28;111027;-66
2022/05/25 00:33:38;;;;;;;0.70;0.60;;;12.30;98.90;12.20;100208.00;;;;4954669;28;87924;-66
2022/05/25 00:36:04;;;;;;;0.73;0.70;;;12.30;99.20;12.20;100223.00;;;;4953648;28;110603;-66
2022/05/25 00:38:30;;;;;;;0.57;0.57;;;12.20;99.50;12.10;100229.00;;;;4953741;28;109214;-66
2022/05/25 00:40:58;;;;;;;0.33;0.33;;;12.10;99.70;12.10;100226.00;;;;4955374;28;87913;-66
2022/05/25 00:43:23;;;;;;;0.47;0.47;;;12.10;99.90;12.00;100220.00;;;;4953662;28;108533;-66
2022/05/25 00:45:54;;;;;;;0.83;0.50;;;12.10;99.90;12.00;100221.00;;;;4965943;28;117834;-66
2022/05/25 00:48:29;;;;;;;0.30;0.30;;;12.00;99.90;11.90;100228.00;;;;4958832;28;110662;-66
2022/05/25 00:51:12;;;;;;;1.80;0.50;;;11.90;99.90;11.90;100229.00;;;;4952374;28;104078;-68
2022/05/25 00:53:42;;;;;;;0.50;0.50;;;11.90;99.90;11.80;100229.00;;;;4954238;28;88687;-66
2022/05/25 00:56:10;;;;;;;1.10;0.70;;;11.80;99.90;11.70;100212.00;;;;4954596;28;100102;-66
2022/05/25 00:58:38;;;;;;;2.37;0.43;;;11.70;99.90;11.60;100218.00;;;;4955217;28;88078;-66
2022/05/25 01:01:05;;;;;;;0.43;0.40;;;11.60;99.90;11.60;100224.00;;;;4937182;28;87776;-66
2022/05/25 01:03:32;;;;;;;0.50;0.40;;;11.60;99.90;11.50;100228.00;;;;4953348;28;109390;-66
2022/05/25 01:06:08;;;;;;;1.60;0.60;;;11.60;99.90;11.50;100242.00;;;;4954482;28;89113;-66
2022/05/25 01:08:45;;;;;;;0.50;0.40;;;11.50;99.90;11.40;100235.00;;;;4954249;28;87821;-67
2022/05/25 01:11:51;;;;;;;0.60;0.60;;;11.50;99.90;11.40;100244.00;;;;4973070;28;86870;-66
2022/05/25 01:14:48;;;;;;;0.40;0.30;;;11.40;99.90;11.30;100245.00;;;;4968299;28;95964;-66
2022/05/25 01:17:49;;;;;;;0.40;0.40;;;11.40;99.90;11.30;100250.00;;;;4951679;28;112279;-66
2022/05/25 01:20:29;;;;;;;0.93;0.20;;;11.40;99.90;11.30;100248.00;;;;4948783;28;101729;-67
2022/05/25 01:23:31;;;;;;;0.93;0.80;;;11.30;99.90;11.20;100252.00;;;;4952093;28;98664;-66
2022/05/25 01:26:34;;;;;;;0.50;0.50;;;11.30;99.90;11.10;100245.00;;;;4969743;28;87797;-66
2022/05/25 01:29:13;;;;;;;0.47;0.47;;;11.20;99.90;11.10;100254.00;;;;4968267;28;110674;-68
2022/05/25 01:32:02;;;;;;;0.30;0.30;;;11.20;99.90;11.10;100244.00;;;;4935746;28;88607;-67
2022/05/25 01:34:41;;;;;;;0.87;0.30;;;11.20;99.90;11.10;100243.00;;;;4936135;28;87940;-68
2022/05/25 01:37:29;;;;;;;0.47;0.47;;;11.20;99.90;11.00;100254.00;;;;4934510;28;97526;-67
2022/05/25 01:40:08;;;;;;;0.40;0.40;;;11.10;99.90;11.00;100247.00;;;;4935991;28;104049;-66
2022/05/25 01:42:46;;;;;;;0.90;0.63;;;11.10;99.90;11.00;100247.00;;;;4931702;28;88287;-66
2022/05/25 01:45:22;;;;;;;0.67;0.67;;;11.00;99.90;10.90;100242.00;;;;4956622;28;87806;-67
2022/05/25 01:47:50;;;;;;;0.60;0.60;;;11.00;99.90;10.90;100242.00;;;;4936744;28;89130;-67
2022/05/25 01:50:22;;;;;;;0.70;0.70;;;11.00;99.90;10.90;100243.00;;;;4972683;28;88109;-66
2022/05/25 01:52:59;;;;;;;1.30;0.87;;;11.00;99.90;10.90;100242.00;;;;4938476;28;87768;-66
2022/05/25 01:55:32;;;;;;;0.67;0.67;;;10.90;99.90;10.80;100248.00;;;;4972659;28;89981;-66
2022/05/25 01:58:18;;;;;;;0.53;0.53;;;10.90;99.90;10.80;100249.00;;;;4938333;28;93441;-66
2022/05/25 02:00:48;;;;;;;0.50;0.40;;;10.90;99.90;10.80;100246.00;;;;4972429;28;87929;-65
2022/05/25 02:06:46;;;;;;;1.53;0.60;;;10.80;99.90;10.70;100253.00;;;;4955098;28;86894;-66
2022/05/25 02:09:48;;;;;;;0.43;0.43;;;10.80;99.90;10.70;100254.00;;;;4957634;28;87744;-65
2022/05/25 02:12:47;;;;;;;0.70;0.57;;;10.70;99.90;10.70;100242.00;;;;4956430;28;87903;-66
2022/05/25 02:16:30;;;;;;;0.63;0.63;;;10.70;99.90;10.60;100256.00;;;;4937651;28;88638;-65
2022/05/25 02:19:42;;;;;;;1.00;0.40;;;10.70;99.90;10.60;100266.00;;;;4907545;28;87867;-66
2022/05/25 02:22:19;;;;;;;0.40;0.40;;;10.70;99.90;10.70;100249.00;;;;4874189;28;97842;-66
2022/05/25 02:24:54;;;;;;;0.50;0.40;;;10.70;99.90;10.70;100251.00;;;;4932368;28;89422;-66
2022/05/25 02:27:36;;;;;;;0.73;0.73;;;10.80;99.90;10.70;100255.00;;;;4937616;28;101150;-65
2022/05/25 02:30:18;;;;;;;1.27;0.60;;;10.80;99.90;10.80;100254.00;;;;4972583;28;87780;-66
2022/05/25 02:32:48;;;;;;;1.50;0.70;;;10.80;99.90;10.80;100250.00;;;;4957177;28;87919;-66
2022/05/25 02:35:16;;;;;;;1.03;0.80;;;10.80;99.90;10.70;100248.00;;;;4972906;28;87070;-66
2022/05/25 02:37:43;;;;;;;0.30;0.30;;;10.80;99.90;10.70;100260.00;;;;4955892;28;111595;-66
2022/05/25 02:40:13;;;;;;;0.37;0.37;;;10.70;99.90;10.70;100269.00;;;;4956972;28;87735;-66
2022/05/25 02:42:40;;;;;;;0.83;0.50;;;10.70;99.90;10.70;100260.00;;;;4969883;28;107808;-66
2022/05/25 02:45:08;;;;;;;1.80;0.40;;;10.70;99.90;10.70;100265.00;;;;4943988;28;87919;-66
2022/05/25 02:47:35;;;;;;;0.40;0.40;;;10.70;99.90;10.80;100271.00;;;;4956634;28;88527;-65
2022/05/25 02:50:00;;;;;;;1.10;0.83;;;10.70;99.90;10.80;100264.00;;;;4957223;28;87814;-66
2022/05/25 02:52:27;;;;;;;1.00;0.63;;;10.80;99.90;10.80;100267.00;;;;4954824;28;107908;-65
2022/05/25 02:54:53;;;;;;;0.63;0.63;;;10.80;99.90;10.80;100269.00;;;;4956854;28;89107;-65
2022/05/25 02:57:18;;;;;;;2.00;0.73;;;10.80;99.90;10.80;100263.00;;;;4955549;28;106884;-66
2022/05/25 02:59:44;;;;;;;0.73;0.73;;;10.80;99.90;10.80;100265.00;;;;4955170;28;111630;-65
2022/05/25 03:02:10;;;;;;;0.50;0.50;;;10.80;99.90;10.80;100278.00;;;;4955525;28;87794;-67
2022/05/25 03:04:37;;;;;;;0.77;0.77;;;10.80;99.90;10.90;100258.00;;;;4938043;28;104093;-65
2022/05/25 03:07:04;;;;;;;0.73;0.73;;;10.90;99.90;10.90;100262.00;;;;4956227;28;88981;-66
2022/05/25 03:09:30;;;;;;;0.50;0.50;;;10.90;99.90;11.00;100263.00;;;;4956475;28;87972;-66
2022/05/25 03:11:56;;;;;;;0.80;0.80;;;10.90;99.90;11.00;100258.00;;;;4955025;28;107913;-66
2022/05/25 03:14:22;;;;;;;0.70;0.50;;;11.00;99.90;11.10;100251.00;;;;4954961;28;118652;-66
2022/05/25 03:16:58;;;;;;;3.70;1.17;;;11.00;99.90;11.10;100254.00;;;;4956164;28;115980;-66
2022/05/25 03:19:24;;;;;;;0.70;0.67;;;11.10;99.90;11.10;100256.00;;;;4970939;28;87975;-66
2022/05/25 03:21:50;;;;;;;1.27;0.93;;;11.10;99.90;11.20;100280.00;;;;4955678;28;88092;-66
2022/05/25 03:24:16;;;;;;;0.40;0.40;;;11.10;99.90;11.20;100273.00;;;;4955943;28;87225;-66
2022/05/25 03:26:41;;;;;;;0.80;0.60;;;11.20;99.90;11.20;100280.00;;;;4955669;28;117443;-66
2022/05/25 03:29:08;;;;;;;1.43;0.80;;;11.20;99.90;11.30;100265.00;;;;4946676;28;109189;-66
2022/05/25 03:31:33;;;;;;;0.67;0.60;;;11.20;99.90;11.30;100267.00;;;;4956149;28;88713;-66
2022/05/25 03:33:59;;;;;;;1.90;0.63;;;11.20;99.90;11.30;100275.00;;;;4954632;28;112491;-66
2022/05/25 03:36:25;;;;;;;0.63;0.60;;;11.20;99.90;11.30;100281.00;;;;4954749;28;117290;-66
2022/05/25 03:38:50;;;;;;;0.50;0.50;;;11.30;99.90;11.30;100283.00;;;;4954246;28;110325;-66
2022/05/25 03:41:17;;;;;;;2.53;0.60;;;11.30;99.90;11.30;100284.00;;;;4956108;28;98911;-66
2022/05/25 03:43:44;;;;;;;0.80;0.80;;;11.30;99.90;11.30;100287.00;;;;4954672;28;90779;-67
2022/05/25 03:46:10;;;;;;;0.77;0.67;;;11.30;99.90;11.40;100286.00;;;;4954504;28;88408;-67
2022/05/25 03:48:36;;;;;;;0.60;0.60;;;11.30;99.90;11.40;100288.00;;;;4940486;28;97712;-66
2022/05/25 03:51:02;;;;;;;0.77;0.63;;;11.40;99.90;11.40;100295.00;;;;4955700;28;93018;-66
2022/05/25 03:53:27;;;;;;;0.70;0.70;;;11.20;99.90;11.40;100288.00;;;;4955588;28;88381;-66
2022/05/25 03:55:53;;;;;;;0.73;0.70;;;11.40;99.90;11.40;100295.00;;;;4954980;28;117841;-66
2022/05/25 03:58:19;;;;;;;0.60;0.60;;;11.40;99.90;11.40;100300.00;;;;4954294;28;110805;-66
2022/05/25 04:00:45;;;;;;;0.53;0.43;;;11.40;99.90;11.40;100295.00;;;;4955587;28;100648;-65
2022/05/25 04:03:16;;;;;;;0.60;0.60;;;11.40;99.90;11.40;100303.00;;;;4953502;28;116071;-68
2022/05/25 04:05:43;;;;;;;0.60;0.60;;;11.40;99.90;11.40;100312.00;;;;4955214;28;107410;-67
2022/05/25 04:08:09;;;;;;;0.57;0.57;;;11.40;99.90;11.40;100307.00;;;;4954975;28;101193;-67
2022/05/25 04:10:38;;;;;;;0.63;0.40;;;11.40;99.90;11.40;100301.00;;;;4955015;28;90621;-66
2022/05/25 04:13:05;;;;;;;0.67;0.67;;;11.30;99.90;11.40;100301.00;;;;4955689;28;87669;-66
2022/05/25 04:15:34;;;;;;;0.50;0.50;;;11.40;99.90;11.50;100295.00;;;;4955818;28;88044;-66
2022/05/25 04:18:01;;;;;;;0.87;0.87;;;11.40;99.90;11.50;100309.00;;;;4954559;28;99558;-66
2022/05/25 04:20:29;;;;;;;0.93;0.70;;;11.50;99.90;11.60;100311.00;;;;4955879;28;88697;-66
2022/05/25 04:22:54;;;;;;;0.50;0.50;;;11.60;99.90;11.70;100301.00;;;;4955180;28;88358;-65
2022/05/25 04:25:23;;;;;;;0.37;0.37;;;11.70;99.90;11.80;100311.00;;;;4953546;28;88532;-66
2022/05/25 04:27:52;;;;;;;0.40;0.40;;;11.80;99.90;12.00;100310.00;;;;4954720;28;87846;-65
2022/05/25 04:30:23;;;;;;;0.40;0.40;;;11.90;99.90;12.10;100313.00;;;;4970745;28;87962;-64
2022/05/25 04:32:49;;;;;;;0.47;0.47;;;12.00;99.90;12.20;100301.00;;;;4968081;28;88720;-65
2022/05/25 04:35:16;;;;;;;0.60;0.50;;;12.10;99.90;12.40;100298.00;;;;4972969;28;117125;-65
2022/05/25 04:37:54;;;;;;;0.50;0.50;;;12.20;99.90;12.50;100307.00;;;;4964822;28;86881;-65
2022/05/25 04:40:32;;;;;;;0.37;0.37;;;12.40;99.90;12.60;100317.00;;;;4970519;28;87816;-66
2022/05/25 04:43:02;;;;;;;0.67;0.67;;;12.50;99.90;12.80;100310.00;;;;4945613;28;88093;-66
2022/05/25 04:45:29;;;;;;;0.40;0.40;;;12.60;99.90;12.90;100318.00;;;;4966032;28;88704;-66
2022/05/25 04:47:57;;;;;;;1.13;0.50;;;12.80;99.90;13.10;100323.00;;;;4970340;28;110462;-67
2022/05/25 04:50:27;;;;;;;1.40;0.47;;;12.90;99.90;13.20;100319.00;;;;4970989;28;88221;-66
2022/05/25 04:52:56;;;;;;;0.67;0.57;;;13.10;99.90;13.30;100330.00;;;;4962894;28;88644;-65
2022/05/25 04:58:35;;;;;;;0.50;0.40;;;13.30;99.90;13.60;100346.00;;;;4944967;28;87999;-67
2022/05/25 05:01:03;;;;;;;0.83;0.70;;;13.40;99.90;13.70;100350.00;;;;4953309;28;87941;-65
2022/05/25 05:03:36;;;;;;;1.60;0.60;;;13.50;99.90;13.70;100341.00;;;;4960001;28;108915;-65
2022/05/25 05:06:06;;;;;;;0.37;0.37;;;13.60;99.90;13.80;100347.00;;;;4960609;28;88258;-65
2022/05/25 05:08:33;;;;;;;0.50;0.50;;;13.70;99.90;13.90;100348.00;;;;4965680;28;88007;-65
2022/05/25 05:11:09;;;;;;;0.50;0.50;;;13.80;99.90;14.00;100350.00;;;;4970000;28;101736;-65
2022/05/25 05:13:39;;;;;;;0.40;0.40;;;13.80;99.90;14.10;100357.00;;;;4939071;28;88466;-65
2022/05/25 05:16:10;;;;;;;1.03;0.50;;;13.90;99.90;14.20;100360.00;;;;4970826;28;89183;-66
2022/05/25 05:18:36;;;;;;;0.60;0.43;;;14.00;99.90;14.30;100356.00;;;;4944590;28;87720;-65
2022/05/25 05:21:02;;;;;;;0.77;0.50;;;14.20;99.90;14.50;100356.00;;;;4969839;28;108014;-65
2022/05/25 05:23:28;;;;;;;0.30;0.30;;;14.30;99.90;14.60;100360.00;;;;4960595;28;88412;-65
2022/05/25 05:25:54;;;;;;;1.80;0.50;;;14.40;99.90;14.80;100368.00;;;;4973907;28;88615;-65
2022/05/25 05:28:31;;;;;;;0.40;0.30;;;14.60;99.90;15.00;100370.00;;;;4970496;28;109622;-65
2022/05/25 05:31:00;;;;;;;1.08;0.40;;;14.80;99.90;15.20;100367.00;;;;4956040;28;87780;-66
2022/05/25 05:33:26;;;;;;;0.40;0.40;;;15.00;99.90;15.30;100371.00;;;;4960669;28;87694;-65
2022/05/25 05:36:03;;;;;;;0.50;0.50;;;15.10;99.90;15.40;100368.00;;;;4973369;28;88851;-66
2022/05/25 05:38:30;;;;;;;0.73;0.60;;;15.20;99.90;15.50;100373.00;;;;4970598;28;101649;-65
2022/05/25 05:40:57;;;;;;;0.28;0.28;;;15.30;99.90;15.50;100381.00;;;;4970461;28;108160;-65
2022/05/25 05:43:23;;;;;;;0.65;0.57;;;15.40;99.90;15.60;100378.00;;;;4965270;28;91074;-65
2022/05/25 05:45:51;;;;;;;0.98;0.57;;;15.40;99.90;15.60;100387.00;;;;4954614;28;115665;-65
2022/05/25 05:48:27;;;;;;;0.25;0.25;;;15.50;99.90;15.60;100386.00;;;;4947863;28;88115;-67
2022/05/25 05:50:55;;;;;;;0.50;0.40;;;15.50;99.90;15.70;100391.00;;;;4973782;28;101129;-67
2022/05/25 05:53:22;;;;;;;2.60;0.70;;;15.50;99.90;15.80;100397.00;;;;4966818;28;87110;-65
2022/05/25 05:55:48;;;;;;;4.53;0.40;;;15.60;99.90;15.80;100396.00;;;;4979505;28;101567;-65
2022/05/25 05:58:14;;;;;;;1.80;0.57;;;15.70;99.90;15.90;100396.00;;;;4967023;28;109358;-65
2022/05/25 06:00:40;;;;;;;1.20;0.70;;;15.70;99.90;15.90;100402.00;;;;4973622;28;89173;-66
2022/05/25 06:03:18;;;;;;;0.57;0.40;;;15.80;99.90;15.90;100403.00;;;;4969301;28;110729;-65
2022/05/25 06:05:44;;;;;;;3.58;0.60;;;15.80;99.80;16.00;100408.00;;;;4964908;28;116621;-65
2022/05/25 06:08:18;;;;;;;0.30;0.30;;;15.80;99.40;16.00;100414.00;;;;4966591;28;109079;-66
2022/05/25 06:10:45;;;;;;;0.60;0.30;;;15.90;99.20;16.00;100417.00;;;;4974026;28;88122;-65
2022/05/25 06:13:11;;;;;;;0.28;0.28;;;15.90;98.90;16.10;100418.00;;;;4967415;28;88990;-67
2022/05/25 06:21:15;;;;;;;2.40;0.70;;;16.10;98.40;16.30;100414.00;;;;4971499;28;87679;-67
2022/05/25 06:23:41;;;;;;;3.97;0.60;;;16.10;98.20;16.30;100424.00;;;;4948079;28;88319;-65
2022/05/25 06:26:07;;;;;;;0.70;0.70;;;16.20;98.10;16.30;100425.00;;;;4971699;28;104595;-67
2022/05/25 06:28:33;;;;;;;0.47;0.40;;;16.20;97.90;16.40;100434.00;;;;4965747;28;87965;-65
2022/05/25 06:30:59;;;;;;;0.70;0.50;;;16.30;97.90;16.40;100431.00;;;;4972827;28;109064;-66
2022/05/25 06:33:25;;;;;;;0.60;0.60;;;16.30;97.70;16.50;100434.00;;;;4963047;28;89450;-65
2022/05/25 06:35:51;;;;;;;0.30;0.30;;;16.40;97.60;16.50;100434.00;;;;4968247;28;117785;-66
2022/05/25 06:38:17;;;;;;;0.88;0.85;;;16.40;97.50;16.60;100434.00;;;;4972361;28;110437;-67
2022/05/25 06:40:42;;;;;;;1.20;0.50;;;16.40;97.20;16.60;100431.00;;;;4962347;28;108838;-66
2022/05/25 06:43:08;;;;;;;0.57;0.43;;;16.50;97.10;16.70;100436.00;;;;4947965;28;117004;-66
2022/05/25 06:45:34;;;;;;;0.70;0.50;;;16.50;97.40;16.80;100440.00;;;;4973695;28;87756;-69
2022/05/25 06:48:03;;;;;;;0.70;0.70;;;16.60;96.90;16.90;100457.00;;;;4972265;28;111363;-65
2022/05/25 06:50:29;;;;;;;0.60;0.60;;;16.70;96.60;17.00;100451.00;;;;4965391;28;88662;-67
2022/05/25 06:52:54;;;;;;;1.27;0.98;;;16.80;96.40;17.10;100453.00;;;;4968414;28;88778;-66
2022/05/25 06:55:26;;;;;;;0.50;0.50;;;16.80;96.10;17.10;100452.00;;;;4969038;28;117491;-65
2022/05/25 06:57:53;;;;;;;0.70;0.70;;;17.00;95.90;17.20;100458.00;;;;4965830;28;109153;-65
2022/05/25 07:00:19;;;;;;;0.88;0.85;;;17.00;95.70;17.20;100468.00;;;;4963952;28;88396;-65
2022/05/25 07:02:44;;;;;;;1.95;1.00;;;17.10;95.50;17.30;100466.00;;;;4971191;28;89139;-68
2022/05/25 07:05:10;;;;;;;1.52;0.90;;;17.10;95.20;17.30;100476.00;;;;4945350;28;117114;-65
2022/05/25 07:07:38;;;;;;;2.17;0.80;;;17.20;95.00;17.40;100468.00;;;;4965818;28;104367;-66
2022/05/25 07:10:04;;;;;;;1.15;1.05;;;17.20;94.40;17.40;100474.00;;;;4962802;28;88757;-65
2022/05/25 07:12:42;;;;;;;4.88;1.52;;;17.20;93.80;17.40;100468.00;;;;4964174;28;106921;-66
2022/05/25 07:15:09;;;;;;;0.65;0.63;;;17.30;93.60;17.40;100475.00;;;;4957998;28;116993;-66
2022/05/25 07:17:35;;;;;;;2.35;1.08;;;17.30;93.50;17.50;100462.00;;;;4971590;28;102434;-65
2022/05/25 07:20:03;;;;;;;1.25;1.15;;;17.30;93.20;17.50;100477.00;;;;4966715;28;87887;-65
2022/05/25 07:22:53;;;;;;;3.22;1.05;;;17.40;93.10;17.50;100479.00;;;;4972017;28;89177;-65
2022/05/25 07:25:19;;;;;;;6.75;1.20;;;17.40;93.00;17.60;100480.00;;;;4966380;28;116992;-66
2022/05/25 07:27:45;;;;;;;3.45;1.35;;;17.40;93.00;17.70;100479.00;;;;4969463;28;110643;-65
2022/05/25 07:30:12;;;;;;;2.00;1.25;;;17.50;93.10;17.70;100486.00;;;;4962013;28;110058;-65
2022/05/25 07:32:38;;;;;;;1.25;1.17;;;17.50;92.50;17.70;100487.00;;;;4970471;28;88390;-65
2022/05/25 07:35:05;;;;;;;2.22;1.30;;;17.50;92.20;17.70;100488.00;;;;4971895;28;116263;-66
2022/05/25 07:37:38;;;;;;;2.28;1.38;;;17.50;92.00;17.60;100492.00;;;;4965343;28;88729;-65
2022/05/25 07:40:19;;;;;;;2.47;1.48;;;17.50;91.80;17.60;100494.00;;;;4939788;28;88887;-64
2022/05/25 07:42:49;;;;;;;1.20;1.10;;;17.50;91.90;17.60;100493.00;;;;4951091;28;87605;-65
2022/05/25 07:45:15;;;;;;;1.30;1.00;;;17.50;91.90;17.70;100491.00;;;;4986967;27;87934;-66
2022/05/25 07:47:40;;;;;;;1.13;0.70;;;17.50;91.90;17.80;100501.00;;;;4965948;28;87902;-66
2022/05/25 07:50:07;;;;;;;0.85;0.70;;;17.60;91.90;17.80;100501.00;;;;4962932;28;109252;-66
2022/05/25 07:52:37;;;;;;;3.28;1.90;;;17.60;91.80;17.90;100500.00;;;;4961818;28;88634;-65
2022/05/25 07:55:06;;;;;;;1.48;1.15;;;17.70;91.80;18.00;100501.00;;;;4969937;28;103793;-66
2022/05/25 07:57:31;;;;;;;3.28;1.55;;;17.80;91.60;18.10;100506.00;;;;4953187;28;86876;-66
2022/05/25 07:59:57;;;;;;;2.03;1.10;;;17.90;91.30;18.20;100507.00;;;;4959175;28;110159;-67
2022/05/25 08:08:12;;;;;;;4.72;1.48;;;18.00;90.10;18.20;100512.00;;;;4966452;28;88021;-66
2022/05/25 08:10:38;;;;;;;1.00;0.90;;;18.00;90.20;18.20;100510.00;;;;4964482;28;88219;-66
2022/05/25 08:13:05;;;;;;;3.28;1.27;;;18.00;89.80;18.30;100512.00;;;;4945901;28;117765;-65
2022/05/25 08:15:33;;;;;;;1.98;1.10;;;18.10;90.00;18.40;100515.00;;;;4967172;28;115719;-65
2022/05/25 08:17:59;;;;;;;1.98;1.15;;;18.10;90.00;18.50;100526.00;;;;4970510;28;87846;-66
2022/05/25 08:20:26;;;;;;;1.35;0.85;;;18.20;89.60;18.50;100526.00;;;;4953884;28;87889;-65
2022/05/25 08:22:51;;;;;;;2.58;1.10;;;18.30;88.70;18.50;100523.00;;;;4967284;28;87891;-65
2022/05/25 08:25:19;;;;;;;2.58;1.77;;;18.30;88.00;18.40;100524.00;;;;4970075;28;117424;-65
2022/05/25 08:27:51;;;;;;;2.28;1.08;;;18.20;86.40;18.30;100524.00;;;;4969574;28;87750;-66
2022/05/25 08:30:20;;;;;;;2.35;0.95;;;18.20;86.60;18.30;100526.00;;;;4970588;28;105422;-65
2022/05/25 08:32:47;;;;;;;1.65;1.15;;;17.90;86.40;18.30;100529.00;;;;4962035;28;88836;-66
2022/05/25 08:35:14;;;;;;;1.65;1.20;;;18.10;87.00;18.40;100529.00;;;;4967398;28;87849;-65
2022/05/25 08:37:41;;;;;;;2.88;1.30;;;18.20;87.20;18.60;100537.00;;;;4968714;28;88129;-65
2022/05/25 08:40:09;;;;;;;2.38;1.55;;;18.30;86.20;18.60;100541.00;;;;4967783;28;87660;-66
2022/05/25 08:42:48;;;;;;;1.45;1.27;;;18.40;84.70;18.70;100536.00;;;;4966232;28;106686;-65
2022/05/25 08:45:14;;;;;;;1.50;1.08;;;18.50;83.90;18.70;100535.00;;;;4971493;28;90396;-67
2022/05/25 08:47:49;;;;;;;0.60;0.60;;;18.50;82.80;18.70;100542.00;;;;4968922;28;110400;-66
2022/05/25 08:50:19;;;;;;;4.97;1.20;;;18.50;82.90;18.70;100535.00;;;;4946167;28;98804;-65
2022/05/25 08:52:46;;;;;;;1.10;0.80;;;18.50;83.40;18.80;100533.00;;;;4945841;28;118195;-65
2022/05/25 08:55:40;;;;;;;1.55;1.08;;;18.60;83.60;19.00;100541.00;;;;4970494;28;88788;-67
2022/05/25 08:58:09;;;;;;;5.22;1.73;;;18.70;83.50;19.10;100528.00;;;;4947406;28;88002;-65
2022/05/25 09:00:35;;;;;;;2.60;0.93;;;18.80;83.60;19.20;100551.00;;;;4953372;28;87736;-66
2022/05/25 09:03:22;;;;;;;1.80;1.15;;;19.00;82.90;19.40;100547.00;;;;4963163;28;117478;-67
2022/05/25 09:05:57;;;;;;;2.00;1.02;;;19.10;82.20;19.40;100545.00;;;;4969858;28;88681;-67
2022/05/25 09:08:50;;;;;;;1.85;1.13;;;19.10;81.10;19.40;100537.00;;;;4950409;28;87985;-65
2022/05/25 09:11:48;;;;;;;1.50;1.13;;;19.20;80.80;19.40;100540.00;;;;4953086;28;87656;-66
2022/05/25 09:14:19;;;;;;;2.15;0.90;;;19.30;80.20;19.40;100548.00;;;;4964792;28;110011;-66
2022/05/25 09:16:49;;;;;;;1.55;0.85;;;19.20;79.80;19.40;100546.00;;;;4952893;28;87844;-67
2022/05/25 09:19:20;;;;;;;1.20;1.10;;;19.20;79.90;19.30;100550.00;;;;4963971;28;103455;-65
2022/05/25 09:21:55;;;;;;;1.25;0.95;;;19.20;79.60;19.30;100550.00;;;;4951954;28;99905;-65
2022/05/25 09:24:27;;;;;;;0.85;0.60;;;19.10;79.50;19.20;100556.00;;;;4947416;28;88484;-65
2022/05/25 09:26:53;;;;;;;1.63;1.13;;;19.10;79.40;19.20;100558.00;;;;4968824;28;96002;-66
2022/05/25 09:29:20;;;;;;;1.05;0.95;;;19.00;78.40;19.10;100557.00;;;;4963340;28;103083;-66
2022/05/25 09:32:06;;;;;;;0.47;0.47;;;18.90;78.40;19.10;100562.00;;;;4971149;28;97951;-66
2022/05/25 09:34:56;;;;;;;0.95;0.90;;;18.90;78.80;19.10;100552.00;;;;4966074;28;88138;-66
2022/05/25 09:37:55;;;;;;;1.20;0.73;;;18.90;77.90;19.10;100553.00;;;;4939228;28;104093;-66
2022/05/25 09:40:45;;;;;;;0.60;0.57;;;19.00;77.90;19.20;100545.00;;;;4965763;28;87432;-65
2022/05/25 09:43:18;;;;;;;0.55;0.52;;;19.00;77.80;19.20;100561.00;;;;4965518;28;87732;-65
2022/05/25 09:45:48;;;;;;;0.60;0.25;;;19.00;77.20;19.20;100554.00;;;;4970283;28;101799;-68
2022/05/25 09:48:29;;;;;;;0.28;0.28;;;19.00;77.10;19.30;100552.00;;;;4944521;28;88903;-65
2022/05/25 09:51:22;;;;;;;0.85;0.47;;;19.10;77.10;19.40;100553.00;;;;4971368;28;88326;-66
2022/05/25 09:54:06;;;;;;;0.77;0.60;;;19.10;76.40;19.40;100566.00;;;;4963451;28;89547;-67
2022/05/25 09:56:56;;;;;;;0.43;0.43;;;19.10;75.90;19.40;100561.00;;;;4951830;28;87945;-66
2022/05/25 09:59:33;;;;;;;0.80;0.60;;;19.20;75.70;19.30;100560.00;;;;4968946;28;98917;-68
2022/05/25 10:01:59;;;;;;;5.18;0.75;;;19.20;75.10;19.30;100554.00;;;;4970369;28;88000;-66
2022/05/25 10:04:51;;;;;;;0.88;0.52;;;19.10;75.30;19.40;100554.00;;;;4945277;28;101347;-66
2022/05/25 10:07:30;;;;;;;0.95;0.50;;;19.20;75.20;19.60;100553.00;;;;4961744;28;87689;-66
2022/05/25 10:10:02;;;;;;;9.90;0.50;;;19.30;73.70;19.60;100550.00;;;;4972397;28;87708;-66
2022/05/25 10:12:40;;;;;;;1.70;0.75;;;19.40;72.20;19.70;100554.00;;;;4969641;28;98784;-66
2022/05/25 10:15:33;;;;;;;0.52;0.47;;;19.50;72.20;19.90;100539.00;;;;4965726;28;98742;-66
2022/05/25 10:17:59;;;;;;;0.65;0.30;;;19.60;71.00;20.00;100544.00;;;;4962714;28;87881;-66
2022/05/25 10:20:45;;;;;;;5.22;0.40;;;19.70;66.20;20.00;100538.00;;;;4973320;28;88831;-67
2022/05/25 10:23:23;;;;;;;0.45;0.35;;;19.80;65.20;20.10;100546.00;;;;4970793;28;87771;-66
2022/05/25 10:26:17;;;;;;;0.10;0.10;;;19.90;65.10;20.30;100545.00;;;;4936197;28;87932;-67
2022/05/25 10:28:51;;;;;;;0.47;0.47;;;20.00;64.90;20.40;100547.00;;;;4943622;28;88665;-66
2022/05/25 10:37:08;;;;;;;3.85;0.50;;;20.40;61.00;21.20;100535.00;;;;4936014;28;87833;-67
2022/05/25 10:39:39;;;;;;;0.57;0.55;;;20.70;60.90;21.60;100541.00;;;;4947546;28;87897;-66
2022/05/25 10:42:37;;;;;;;2.15;0.50;;;21.20;61.00;22.00;100534.00;;;;4953052;28;88534;-66
2022/05/25 10:45:20;;;;;;;2.50;0.70;;;21.50;59.70;22.30;100535.00;;;;4938720;28;87509;-66
2022/05/25 10:48:07;;;;;;;2.55;0.20;;;21.80;57.80;22.60;100529.00;;;;4943822;28;87900;-66
2022/05/25 10:50:46;;;;;;;0.70;0.32;;;22.00;57.50;22.90;100536.00;;;;4946071;28;87747;-66
2022/05/25 10:53:38;;;;;;;0.20;0.20;;;22.40;56.60;23.40;100536.00;;;;4950820;28;87791;-70
2022/05/25 10:56:35;;;;;;;3.47;0.47;;;22.80;56.60;23.80;100534.00;;;;4929690;28;87857;-70
2022/05/25 10:59:30;;;;;;;0.10;0.10;;;23.20;53.10;23.80;100524.00;;;;4943135;28;99517;-69
2022/05/25 11:02:58;;;;;;;0.10;0.10;;;23.40;52.30;23.90;100520.00;;;;4926581;28;88623;-69
2022/05/25 11:05:40;;;;;;;0.40;0.40;;;23.40;51.70;23.90;100525.00;;;;4934585;28;88040;-69
2022/05/25 11:08:29;;;;;;;0.43;0.20;;;23.50;50.10;23.90;100526.00;;;;4942629;28;87975;-70
2022/05/25 11:11:21;;;;;;;1.30;0.40;;;23.50;50.10;24.00;100520.00;;;;4914384;28;102622;-70
2022/05/25 11:14:11;;;;;;;0.20;0.20;;;23.60;50.50;24.20;100530.00;;;;4933125;28;109799;-69
2022/05/25 11:16:59;;;;;;;0.63;0.15;;;23.80;50.60;24.30;100525.00;;;;4932591;28;106667;-69
2022/05/25 11:20:10;;;;;;;1.25;0.20;;;23.80;49.70;24.20;100516.00;;;;4945640;28;88020;-69
2022/05/25 11:23:35;;;;;;;2.47;0.40;;;23.90;47.90;24.10;100526.00;;;;4935865;28;102311;-69
2022/05/25 11:26:20;;;;;;;0.20;0.20;;;23.80;47.90;23.90;100515.00;;;;4926886;28;90264;-69
2022/05/25 11:29:12;;;;;;;0.40;0.30;;;23.50;48.50;24.10;100511.00;;;;4983382;28;89822;-69
2022/05/25 11:32:26;;;;;;;1.05;0.52;;;23.70;48.80;24.40;100522.00;;;;4954463;28;87432;-70
2022/05/25 11:35:48;;;;;;;1.90;0.55;;;24.00;48.10;24.50;100521.00;;;;4967702;28;88211;-69
2022/05/25 11:38:49;;;;;;;0.25;0.20;;;24.10;48.00;24.60;100514.00;;;;4936443;28;88274;-71